createdAt,value
2019-02-18T00:00:38.785Z,62.20
2019-02-18T00:03:08.658Z,62.00
2019-02-18T00:05:37.285Z,63.20
2019-02-18T00:08:05.991Z,63.40
2019-02-18T00:10:34.643Z,63.40
2019-02-18T00:13:03.296Z,62.90
2019-02-18T00:15:31.997Z,63.60
2019-02-18T00:18:00.651Z,64.10
2019-02-18T00:20:29.299Z,63.50
2019-02-18T00:22:58.003Z,62.70
2019-02-18T00:25:26.667Z,62.30
2019-02-18T00:27:55.313Z,62.20
2019-02-18T00:30:24.033Z,62.30
2019-02-18T00:32:52.718Z,62.00
2019-02-18T00:35:21.369Z,62.00
2019-02-18T00:37:50.057Z,61.40
2019-02-18T00:40:18.711Z,60.80
2019-02-18T00:42:47.360Z,61.20
2019-02-18T00:45:15.983Z,61.40
2019-02-18T00:47:44.630Z,61.70
2019-02-18T00:50:14.897Z,62.60
2019-02-18T00:52:43.585Z,62.20
2019-02-18T00:55:12.252Z,62.30
2019-02-18T00:57:40.905Z,62.40
2019-02-18T01:00:15.301Z,63.10
2019-02-18T01:02:43.945Z,63.70
2019-02-18T01:05:13.219Z,63.60
2019-02-18T01:07:41.935Z,63.20
2019-02-18T01:10:12.174Z,63.40
2019-02-18T01:12:40.821Z,63.40
2019-02-18T01:15:14.354Z,63.30
2019-02-18T01:17:43.018Z,63.20
2019-02-18T01:20:13.604Z,64.30
2019-02-18T01:22:42.290Z,64.30
2019-02-18T01:25:12.743Z,64.20
2019-02-18T01:27:41.392Z,64.20
2019-02-18T01:30:12.958Z,64.60
2019-02-18T01:32:41.611Z,65.00
2019-02-18T01:35:10.279Z,65.10
2019-02-18T01:37:45.917Z,65.60
2019-02-18T01:40:11.950Z,65.60
2019-02-18T01:42:40.591Z,65.20
2019-02-18T01:45:11.817Z,64.80
2019-02-18T01:47:40.479Z,64.20
2019-02-18T01:50:11.901Z,64.20
2019-02-18T01:52:40.607Z,64.10
2019-02-18T01:55:10.457Z,64.70
2019-02-18T01:57:39.094Z,65.60
2019-02-18T02:00:10.651Z,66.50
2019-02-18T02:02:39.286Z,65.80
2019-02-18T02:05:08.035Z,65.80
2019-02-18T02:07:37.567Z,65.70
2019-02-18T02:10:09.416Z,66.20
2019-02-18T02:12:38.089Z,66.50
2019-02-18T02:15:09.912Z,66.70
2019-02-18T02:17:38.555Z,66.80
2019-02-18T02:20:07.797Z,67.00
2019-02-18T02:22:36.532Z,66.90
2019-02-18T02:25:05.875Z,66.80
2019-02-18T02:27:34.526Z,66.60
2019-02-18T02:30:03.533Z,67.10
2019-02-18T02:32:32.184Z,66.80
2019-02-18T02:35:00.842Z,67.30
2019-02-18T02:37:29.564Z,67.00
2019-02-18T02:39:58.204Z,66.60
2019-02-18T02:42:26.871Z,67.00
2019-02-18T02:44:55.538Z,67.20
2019-02-18T02:47:24.171Z,67.40
2019-02-18T02:49:52.738Z,67.50
2019-02-18T02:52:21.442Z,67.40
2019-02-18T02:54:50.077Z,67.70
2019-02-18T02:57:18.737Z,68.40
2019-02-18T02:59:47.453Z,68.90
2019-02-18T03:02:16.099Z,69.80
2019-02-18T03:04:44.800Z,70.50
2019-02-18T03:07:13.482Z,70.50
2019-02-18T03:09:42.602Z,70.20
2019-02-18T03:12:11.204Z,70.10
2019-02-18T03:14:39.896Z,70.40
2019-02-18T03:17:08.535Z,70.40
2019-02-18T03:19:37.230Z,70.30
2019-02-18T03:22:05.927Z,70.30
2019-02-18T03:24:34.589Z,70.00
2019-02-18T03:27:03.250Z,70.00
2019-02-18T03:29:41.108Z,70.80
2019-02-18T03:32:09.807Z,70.00
2019-02-18T03:34:38.437Z,70.00
2019-02-18T03:37:07.107Z,69.70
2019-02-18T03:39:35.793Z,69.40
2019-02-18T03:42:04.544Z,70.10
2019-02-18T03:44:33.252Z,69.30
2019-02-18T03:47:01.916Z,69.60
2019-02-18T03:49:30.551Z,69.60
2019-02-18T03:51:59.251Z,69.60
2019-02-18T03:54:27.902Z,69.30
2019-02-18T03:56:56.560Z,69.20
2019-02-18T03:59:25.281Z,69.70
2019-02-18T04:01:53.926Z,70.10
2019-02-18T04:04:22.570Z,69.90
2019-02-18T04:06:51.267Z,69.80
2019-02-18T04:09:19.914Z,69.60
2019-02-18T04:11:49.633Z,69.60
2019-02-18T04:14:18.315Z,69.40
2019-02-18T04:16:46.956Z,69.60
2019-02-18T04:19:15.524Z,70.00
2019-02-18T04:21:44.224Z,70.10
2019-02-18T04:24:12.890Z,70.30
2019-02-18T04:26:41.526Z,70.20
2019-02-18T04:29:10.164Z,70.30
2019-02-18T04:31:38.857Z,70.90
2019-02-18T04:34:07.457Z,71.10
2019-02-18T04:36:36.179Z,71.20
2019-02-18T04:39:05.919Z,71.50
2019-02-18T04:41:34.563Z,71.90
2019-02-18T04:44:03.266Z,72.00
2019-02-18T04:46:31.938Z,72.10
2019-02-18T04:49:00.561Z,72.00
2019-02-18T04:51:29.266Z,72.00
2019-02-18T04:53:57.908Z,72.20
2019-02-18T04:56:26.589Z,72.30
2019-02-18T04:58:55.295Z,72.00
2019-02-18T05:01:23.936Z,71.90
2019-02-18T05:03:52.573Z,72.10
2019-02-18T05:06:21.283Z,72.10
2019-02-18T05:08:49.944Z,71.90
2019-02-18T05:11:18.507Z,72.00
2019-02-18T05:13:47.394Z,72.10
2019-02-18T05:16:16.056Z,72.00
2019-02-18T05:18:44.726Z,72.40
2019-02-18T05:21:13.429Z,72.30
2019-02-18T05:23:42.070Z,72.60
2019-02-18T05:26:10.723Z,72.30
2019-02-18T05:28:39.419Z,72.00
2019-02-18T05:31:08.064Z,71.80
2019-02-18T05:33:36.715Z,71.80
2019-02-18T05:36:05.413Z,72.10
2019-02-18T05:38:34.059Z,72.30
2019-02-18T05:41:02.696Z,72.80
2019-02-18T05:43:31.421Z,72.60
2019-02-18T05:46:00.074Z,72.80
2019-02-18T05:48:28.734Z,72.70
2019-02-18T05:50:57.424Z,72.20
2019-02-18T05:53:26.058Z,72.40
2019-02-18T05:55:54.713Z,72.60
2019-02-18T05:58:23.407Z,72.40
2019-02-18T06:01:11.431Z,72.70
2019-02-18T06:03:40.118Z,72.70
2019-02-18T06:06:08.771Z,72.60
2019-02-18T06:08:37.406Z,72.60
2019-02-18T06:11:06.105Z,73.10
2019-02-18T06:13:34.757Z,73.10
2019-02-18T06:16:04.159Z,72.80
2019-02-18T06:18:32.858Z,72.40
2019-02-18T06:21:01.421Z,72.20
2019-02-18T06:23:30.066Z,71.90
2019-02-18T06:25:58.815Z,71.10
2019-02-18T06:28:27.423Z,71.10
2019-02-18T06:30:56.053Z,70.70
2019-02-18T06:33:24.773Z,70.30
2019-02-18T06:35:53.405Z,70.20
2019-02-18T06:38:21.982Z,69.60
2019-02-18T06:40:50.679Z,69.70
2019-02-18T06:43:19.327Z,69.90
2019-02-18T06:45:49.540Z,69.70
2019-02-18T06:48:22.868Z,69.40
2019-02-18T06:50:51.518Z,68.60
2019-02-18T06:53:20.153Z,66.40
2019-02-18T06:55:48.861Z,61.80
2019-02-18T06:58:21.786Z,57.60
2019-02-18T07:00:52.004Z,54.30
2019-02-18T07:03:22.283Z,51.80
2019-02-18T07:05:52.498Z,50.90
2019-02-18T07:08:31.622Z,50.90
2019-02-18T07:11:01.864Z,50.10
2019-02-18T07:13:30.517Z,51.20
2019-02-18T07:15:59.205Z,51.20
2019-02-18T07:18:28.531Z,51.00
2019-02-18T07:20:57.179Z,49.90
2019-02-18T07:23:25.891Z,48.50
2019-02-18T07:25:54.479Z,47.80
2019-02-18T07:28:23.128Z,47.50
2019-02-18T07:30:51.856Z,45.40
2019-02-18T07:33:20.444Z,43.00
2019-02-18T07:35:49.095Z,42.40
2019-02-18T07:38:17.817Z,41.60
2019-02-18T07:40:54.846Z,39.30
2019-02-18T07:43:24.223Z,37.90
2019-02-18T07:45:52.875Z,37.80
2019-02-18T07:48:21.514Z,36.30
2019-02-18T07:50:50.213Z,35.00
2019-02-18T07:53:18.868Z,34.20
2019-02-18T07:55:47.521Z,33.20
2019-02-18T07:58:16.245Z,31.60
2019-02-18T08:00:44.878Z,29.90
2019-02-18T08:03:13.563Z,29.60
2019-02-18T08:05:42.275Z,28.30
2019-02-18T08:08:10.877Z,28.70
2019-02-18T08:10:39.518Z,27.70
2019-02-18T08:13:08.216Z,26.70
2019-02-18T08:15:36.869Z,25.20
2019-02-18T08:18:05.502Z,24.60
2019-02-18T08:20:34.582Z,25.30
2019-02-18T08:23:03.235Z,26.50
2019-02-18T08:25:31.882Z,26.60
2019-02-18T08:28:00.583Z,26.80
2019-02-18T08:30:29.221Z,25.50
2019-02-18T08:32:57.888Z,24.00
2019-02-18T08:35:26.605Z,23.50
2019-02-18T08:37:55.255Z,24.40
2019-02-18T08:40:23.919Z,24.80
2019-02-18T08:42:52.611Z,25.20
2019-02-18T08:45:21.253Z,24.90
2019-02-18T08:47:49.917Z,25.50
2019-02-18T08:50:18.631Z,25.40
2019-02-18T08:52:47.221Z,25.50
2019-02-18T08:55:15.877Z,24.90
2019-02-18T08:57:44.587Z,21.80
2019-02-18T09:00:15.552Z,20.40
2019-02-18T09:02:44.185Z,20.20
2019-02-18T09:05:12.864Z,19.40
2019-02-18T09:07:41.486Z,19.50
2019-02-18T09:10:12.450Z,19.20
2019-02-18T09:12:41.160Z,20.60
2019-02-18T09:15:11.030Z,21.10
2019-02-18T09:17:39.681Z,21.80
2019-02-18T09:20:09.673Z,21.60
2019-02-18T09:22:52.070Z,21.00
2019-02-18T09:25:22.380Z,21.00
2019-02-18T09:27:51.430Z,20.60
2019-02-18T09:30:21.595Z,20.40
2019-02-18T09:32:50.229Z,19.20
2019-02-18T09:35:18.879Z,18.80
2019-02-18T09:37:47.520Z,19.70
2019-02-18T09:40:16.718Z,20.50
2019-02-18T09:42:45.303Z,20.60
2019-02-18T09:45:15.063Z,21.20
2019-02-18T09:47:43.740Z,20.10
2019-02-18T09:50:12.391Z,19.00
2019-02-18T09:52:41.045Z,18.50
2019-02-18T09:55:10.451Z,19.60
2019-02-18T09:57:39.108Z,20.50
2019-02-18T10:00:10.060Z,20.10
2019-02-18T10:02:38.760Z,20.60
2019-02-18T10:05:08.098Z,19.90
2019-02-18T10:07:36.757Z,18.70
2019-02-18T10:10:07.978Z,18.80
2019-02-18T10:12:36.627Z,18.80
2019-02-18T10:15:08.088Z,20.10
2019-02-18T10:17:36.797Z,20.90
2019-02-18T10:20:08.811Z,22.50
2019-02-18T10:22:37.470Z,22.20
2019-02-18T10:25:08.968Z,22.00
2019-02-18T10:27:37.619Z,23.00
2019-02-18T10:30:07.868Z,22.20
2019-02-18T10:32:36.585Z,23.10
2019-02-18T10:35:08.279Z,24.00
2019-02-18T10:37:36.922Z,23.60
2019-02-18T10:40:07.223Z,23.20
2019-02-18T10:42:35.878Z,23.80
2019-02-18T10:45:06.444Z,24.70
2019-02-18T10:47:35.139Z,24.90
2019-02-18T10:50:04.692Z,25.10
2019-02-18T10:52:33.348Z,25.80
2019-02-18T10:55:02.084Z,26.90
2019-02-18T10:57:30.731Z,27.50
2019-02-18T10:59:59.433Z,28.40
2019-02-18T11:02:28.123Z,28.40
2019-02-18T11:04:56.764Z,28.90
2019-02-18T11:07:25.415Z,29.30
2019-02-18T11:09:54.066Z,29.30
2019-02-18T11:12:22.736Z,28.90
2019-02-18T11:14:51.387Z,28.30
2019-02-18T11:17:20.115Z,28.60
2019-02-18T11:19:48.792Z,28.40
2019-02-18T11:22:17.853Z,28.10
2019-02-18T11:24:46.558Z,28.70
2019-02-18T11:27:16.218Z,28.20
2019-02-18T11:29:44.863Z,28.00
2019-02-18T11:32:13.590Z,27.70
2019-02-18T11:34:42.243Z,28.20
2019-02-18T11:37:13.665Z,28.60
2019-02-18T11:39:41.645Z,27.80
2019-02-18T11:42:10.310Z,29.60
2019-02-18T11:44:38.899Z,29.30
2019-02-18T11:47:07.589Z,29.00
2019-02-18T11:49:36.179Z,28.80
2019-02-18T11:52:04.767Z,28.40
2019-02-18T11:54:33.502Z,28.20
2019-02-18T11:57:02.151Z,27.20
2019-02-18T11:59:30.813Z,26.60
2019-02-18T12:01:59.534Z,26.30
2019-02-18T12:04:28.173Z,26.60
2019-02-18T12:06:57.330Z,26.10
2019-02-18T12:09:26.062Z,24.80
2019-02-18T12:11:54.711Z,24.10
2019-02-18T12:14:23.367Z,23.30
2019-02-18T12:16:52.079Z,23.00
2019-02-18T12:19:20.739Z,23.20
2019-02-18T12:21:49.387Z,23.50
2019-02-18T12:24:18.116Z,23.50
2019-02-18T12:26:46.785Z,24.60
2019-02-18T12:29:25.922Z,24.10
2019-02-18T12:31:46.466Z,25.70
2019-02-18T12:34:15.132Z,26.20
2019-02-18T12:36:43.775Z,26.80
2019-02-18T12:39:14.173Z,26.80
2019-02-18T12:41:48.767Z,27.30
2019-02-18T12:44:13.486Z,27.70
2019-02-18T12:46:43.635Z,27.70
2019-02-18T12:49:14.147Z,28.20
2019-02-18T12:51:43.231Z,28.30
2019-02-18T12:54:15.210Z,28.70
2019-02-18T12:56:43.940Z,29.50
2019-02-18T12:59:12.598Z,28.20
2019-02-18T13:01:41.298Z,28.10
2019-02-18T13:04:09.951Z,28.00
2019-02-18T13:06:38.613Z,28.60
2019-02-18T13:09:07.333Z,28.20
2019-02-18T13:11:36.394Z,28.30
2019-02-18T13:14:05.056Z,28.20
2019-02-18T13:16:33.683Z,29.30
2019-02-18T13:19:02.317Z,29.00
2019-02-18T13:21:30.898Z,28.80
2019-02-18T13:23:59.588Z,29.70
2019-02-18T13:26:28.256Z,29.80
2019-02-18T13:28:57.133Z,29.20
2019-02-18T13:31:25.840Z,29.60
2019-02-18T13:33:54.495Z,30.00
2019-02-18T13:36:23.131Z,30.00
2019-02-18T13:38:51.829Z,29.40
2019-02-18T13:41:20.482Z,29.50
2019-02-18T13:43:49.142Z,29.50
2019-02-18T13:46:17.792Z,29.90
2019-02-18T13:48:49.517Z,29.70
2019-02-18T13:51:24.034Z,28.90
2019-02-18T13:53:48.515Z,29.50
2019-02-18T13:56:17.041Z,29.40
2019-02-18T13:58:45.708Z,29.00
2019-02-18T14:01:14.428Z,29.20
2019-02-18T14:03:43.086Z,29.00
2019-02-18T14:06:11.754Z,29.50
2019-02-18T14:08:40.437Z,30.00
2019-02-18T14:11:09.077Z,30.30
2019-02-18T14:13:37.720Z,28.00
2019-02-18T14:16:06.517Z,27.50
2019-02-18T14:18:35.157Z,27.30
2019-02-18T14:21:03.808Z,27.50
2019-02-18T14:23:32.535Z,27.50
2019-02-18T14:26:01.166Z,27.60
2019-02-18T14:28:29.924Z,27.10
2019-02-18T14:30:59.035Z,27.60
2019-02-18T14:33:28.362Z,27.40
2019-02-18T14:35:57.023Z,27.50
2019-02-18T14:38:25.723Z,28.00
2019-02-18T14:40:54.369Z,27.80
2019-02-18T14:43:23.020Z,27.80
2019-02-18T14:45:52.326Z,27.60
2019-02-18T14:48:20.975Z,28.40
2019-02-18T14:50:56.491Z,28.70
2019-02-18T14:53:19.977Z,28.70
2019-02-18T14:55:48.631Z,28.50
2019-02-18T14:58:17.283Z,28.50
2019-02-18T15:00:45.986Z,28.00
2019-02-18T15:03:14.653Z,28.10
2019-02-18T15:05:43.304Z,28.30
2019-02-18T15:08:12.023Z,28.90
2019-02-18T15:10:40.658Z,29.00
2019-02-18T15:13:09.303Z,28.90
2019-02-18T15:15:38.042Z,29.10
2019-02-18T15:18:06.694Z,29.50
2019-02-18T15:20:35.367Z,29.80
2019-02-18T15:23:04.061Z,30.10
2019-02-18T15:25:32.707Z,30.10
2019-02-18T15:28:01.366Z,30.50
2019-02-18T15:30:30.068Z,30.60
2019-02-18T15:32:59.115Z,30.90
2019-02-18T15:35:28.377Z,31.10
2019-02-18T15:37:57.094Z,31.30
2019-02-18T15:40:25.729Z,32.20
2019-02-18T15:42:54.392Z,32.70
2019-02-18T15:45:23.113Z,33.50
2019-02-18T15:47:52.162Z,34.40
2019-02-18T15:50:20.797Z,34.80
2019-02-18T15:52:49.507Z,34.80
2019-02-18T15:55:18.156Z,36.00
2019-02-18T15:57:46.814Z,36.60
2019-02-18T16:00:21.258Z,37.30
2019-02-18T16:02:50.401Z,38.10
2019-02-18T16:05:19.068Z,38.40
2019-02-18T16:07:47.800Z,39.20
2019-02-18T16:10:16.435Z,40.20
2019-02-18T16:12:50.463Z,40.70
2019-02-18T16:15:15.442Z,40.90
2019-02-18T16:17:44.688Z,41.00
2019-02-18T16:20:14.241Z,41.10
2019-02-18T16:22:42.944Z,41.60
2019-02-18T16:25:22.691Z,41.90
2019-02-18T16:27:51.397Z,42.60
2019-02-18T16:30:20.052Z,43.30
2019-02-18T16:32:48.706Z,43.60
2019-02-18T16:35:17.411Z,44.20
2019-02-18T16:37:46.068Z,44.50
2019-02-18T16:40:17.282Z,44.90
2019-02-18T16:42:45.994Z,45.30
2019-02-18T16:45:15.226Z,45.50
2019-02-18T16:47:43.868Z,45.40
2019-02-18T16:50:12.576Z,45.70
2019-02-18T16:52:41.237Z,45.90
2019-02-18T16:55:14.835Z,46.20
2019-02-18T16:57:43.543Z,46.50
2019-02-18T17:00:19.080Z,47.00
2019-02-18T17:02:47.787Z,47.10
2019-02-18T17:05:16.443Z,47.50
2019-02-18T17:07:45.095Z,47.90
2019-02-18T17:10:13.903Z,48.40
2019-02-18T17:12:42.667Z,48.40
2019-02-18T17:15:13.010Z,48.40
2019-02-18T17:17:41.739Z,48.90
2019-02-18T17:20:10.387Z,49.20
2019-02-18T17:22:39.038Z,49.60
2019-02-18T17:25:10.538Z,49.80
2019-02-18T17:27:39.176Z,50.00
2019-02-18T17:30:11.535Z,50.20
2019-02-18T17:32:40.225Z,50.60
2019-02-18T17:35:12.095Z,51.00
2019-02-18T17:37:40.264Z,50.90
2019-02-18T17:40:14.028Z,51.00
2019-02-18T17:42:43.312Z,51.10
2019-02-18T17:45:14.045Z,51.20
2019-02-18T17:47:42.770Z,51.40
2019-02-18T17:50:16.317Z,51.40
2019-02-18T17:53:04.397Z,51.30
2019-02-18T17:55:33.050Z,51.50
2019-02-18T17:58:01.691Z,51.60
2019-02-18T18:00:37.756Z,51.80
2019-02-18T18:03:06.394Z,51.90
2019-02-18T18:05:35.050Z,52.00
2019-02-18T18:08:04.253Z,52.20
2019-02-18T18:10:32.925Z,52.30
2019-02-18T18:13:01.719Z,52.90
2019-02-18T18:15:30.415Z,53.30
2019-02-18T18:17:59.068Z,53.60
2019-02-18T18:20:27.698Z,54.00
2019-02-18T18:22:58.068Z,54.30
2019-02-18T18:25:26.714Z,54.50
2019-02-18T18:27:55.372Z,54.50
2019-02-18T18:30:24.065Z,55.20
2019-02-18T18:32:52.723Z,55.40
2019-02-18T18:35:21.381Z,55.70
2019-02-18T18:37:50.707Z,56.00
2019-02-18T18:40:20.051Z,55.60
2019-02-18T18:42:49.497Z,56.20
2019-02-18T18:45:18.611Z,56.10
2019-02-18T18:47:47.287Z,56.50
2019-02-18T18:50:21.088Z,56.40
2019-02-18T18:52:49.822Z,56.30
2019-02-18T18:55:18.466Z,56.40
2019-02-18T18:57:47.124Z,56.20
2019-02-18T19:00:20.508Z,56.00
2019-02-18T19:02:49.173Z,56.10
2019-02-18T19:05:18.422Z,56.10
2019-02-18T19:07:47.144Z,56.10
2019-02-18T19:10:15.795Z,56.30
2019-02-18T19:12:44.455Z,56.60
2019-02-18T19:15:14.777Z,56.30
2019-02-18T19:17:43.439Z,56.40
2019-02-18T19:20:12.672Z,56.50
2019-02-18T19:22:41.395Z,56.40
2019-02-18T19:25:11.225Z,56.30
2019-02-18T19:27:39.869Z,56.10
2019-02-18T19:30:28.928Z,56.50
2019-02-18T19:32:57.595Z,56.70
2019-02-18T19:35:26.232Z,56.80
2019-02-18T19:37:54.928Z,56.80
2019-02-18T19:40:23.575Z,56.80
2019-02-18T19:42:52.227Z,57.10
2019-02-18T19:45:23.551Z,57.10
2019-02-18T19:47:52.211Z,57.50
2019-02-18T19:50:20.856Z,57.60
2019-02-18T19:52:49.551Z,57.70
2019-02-18T19:55:18.212Z,58.00
2019-02-18T19:57:46.865Z,58.00
2019-02-18T20:00:18.810Z,58.50
2019-02-18T20:02:50.843Z,58.70
2019-02-18T20:05:19.463Z,58.90
2019-02-18T20:07:48.182Z,58.80
2019-02-18T20:10:16.827Z,59.00
2019-02-18T20:12:45.483Z,59.10
2019-02-18T20:15:17.189Z,59.20
2019-02-18T20:17:45.840Z,59.00
2019-02-18T20:20:16.100Z,58.90
2019-02-18T20:22:44.808Z,59.20
2019-02-18T20:25:13.465Z,59.40
2019-02-18T20:27:42.121Z,59.50
2019-02-18T20:30:15.495Z,59.90
2019-02-18T20:32:44.150Z,60.30
2019-02-18T20:35:12.838Z,60.20
2019-02-18T20:37:41.528Z,60.70
2019-02-18T20:40:11.488Z,60.70
2019-02-18T20:42:40.435Z,60.90
2019-02-18T20:45:13.193Z,61.50
2019-02-18T20:47:42.298Z,61.40
2019-02-18T20:50:12.351Z,61.80
2019-02-18T20:52:41.061Z,62.10
2019-02-18T20:55:12.113Z,62.10
2019-02-18T20:57:40.765Z,62.30
2019-02-18T21:00:13.648Z,62.60
2019-02-18T21:02:42.293Z,62.90
2019-02-18T21:05:10.956Z,63.50
2019-02-18T21:07:39.663Z,64.00
2019-02-18T21:10:11.640Z,64.10
2019-02-18T21:12:40.294Z,64.20
2019-02-18T21:15:09.456Z,64.30
2019-02-18T21:17:38.104Z,64.20
2019-02-18T21:20:09.452Z,64.30
2019-02-18T21:22:38.168Z,64.40
2019-02-18T21:25:09.326Z,64.50
2019-02-18T21:27:37.993Z,64.70
2019-02-18T21:30:10.101Z,64.80
2019-02-18T21:32:39.970Z,65.30
2019-02-18T21:35:10.158Z,65.60
2019-02-18T21:37:38.937Z,65.90
2019-02-18T21:40:10.059Z,65.80
2019-02-18T21:42:38.704Z,66.10
2019-02-18T21:45:10.596Z,66.10
2019-02-18T21:47:39.255Z,66.40
2019-02-18T21:50:10.286Z,66.10
2019-02-18T21:52:39.388Z,66.30
2019-02-18T21:55:09.839Z,66.40
2019-02-18T21:57:38.475Z,66.60
2019-02-18T22:00:20.714Z,66.70
2019-02-18T22:02:49.464Z,66.80
2019-02-18T22:05:18.741Z,66.90
2019-02-18T22:07:47.455Z,66.80
2019-02-18T22:10:16.022Z,67.30
2019-02-18T22:12:44.674Z,67.60
2019-02-18T22:15:14.685Z,67.20
2019-02-18T22:17:43.331Z,67.50
2019-02-18T22:20:13.866Z,67.20
2019-02-18T22:22:42.570Z,67.40
2019-02-18T22:25:12.405Z,67.70
2019-02-18T22:27:41.062Z,68.50
2019-02-18T22:30:12.380Z,68.10
2019-02-18T22:32:41.053Z,68.00
2019-02-18T22:35:09.680Z,68.00
2019-02-18T22:37:38.382Z,68.00
2019-02-18T22:40:09.130Z,68.00
2019-02-18T22:42:38.797Z,67.90
2019-02-18T22:45:09.325Z,68.10
2019-02-18T22:47:37.966Z,68.00
2019-02-18T22:50:08.860Z,69.60
2019-02-18T22:52:38.156Z,69.10
2019-02-18T22:55:07.708Z,69.30
2019-02-18T22:57:36.405Z,68.70
2019-02-18T23:00:08.181Z,68.50
2019-02-18T23:02:36.837Z,68.60
2019-02-18T23:05:05.733Z,68.40
2019-02-18T23:07:34.861Z,68.80
2019-02-18T23:10:04.132Z,68.70
2019-02-18T23:12:32.850Z,69.20
2019-02-18T23:15:01.505Z,69.00
2019-02-18T23:17:30.151Z,68.40
2019-02-18T23:19:58.847Z,67.60
2019-02-18T23:22:27.483Z,66.70
2019-02-18T23:24:56.131Z,65.80
2019-02-18T23:27:24.749Z,65.10
2019-02-18T23:29:53.407Z,65.30
2019-02-18T23:32:22.054Z,64.90
2019-02-18T23:34:50.750Z,65.30
2019-02-18T23:37:19.394Z,65.90
2019-02-18T23:39:48.050Z,66.20
2019-02-18T23:42:16.749Z,66.90
2019-02-18T23:44:45.394Z,67.30
2019-02-18T23:47:14.034Z,67.10
2019-02-18T23:49:42.725Z,66.50
2019-02-18T23:52:11.381Z,66.40
2019-02-18T23:54:40.572Z,66.40
2019-02-18T23:57:09.276Z,66.90
2019-02-18T23:59:37.859Z,67.10
